sensor_id;sensor_type;location;lat;lon;timestamp;temperature;humidity
72114;SHT31;59989;46.220;19.888;2023-02-16T00:02:17;-2.55;91.00
72114;SHT31;59989;46.220;19.888;2023-02-16T00:05:37;-2.51;91.08
72114;SHT31;59989;46.220;19.888;2023-02-16T00:08:56;-2.36;91.21
72114;SHT31;59989;46.220;19.888;2023-02-16T00:12:18;-2.27;91.28
72114;SHT31;59989;46.220;19.888;2023-02-16T00:15:58;-2.31;91.18
72114;SHT31;59989;46.220;19.888;2023-02-16T00:19:30;-2.42;90.87
72114;SHT31;59989;46.220;19.888;2023-02-16T00:22:50;-2.52;90.78
72114;SHT31;59989;46.220;19.888;2023-02-16T00:26:30;-2.62;90.71
72114;SHT31;59989;46.220;19.888;2023-02-16T00:29:52;-2.62;91.09
72114;SHT31;59989;46.220;19.888;2023-02-16T00:33:14;-2.42;91.18
72114;SHT31;59989;46.220;19.888;2023-02-16T00:36:34;-2.34;91.16
72114;SHT31;59989;46.220;19.888;2023-02-16T00:39:56;-2.31;91.00
72114;SHT31;59989;46.220;19.888;2023-02-16T00:43:25;-2.36;90.76
72114;SHT31;59989;46.220;19.888;2023-02-16T00:46:46;-2.45;90.47
72114;SHT31;59989;46.220;19.888;2023-02-16T00:50:15;-2.65;90.59
72114;SHT31;59989;46.220;19.888;2023-02-16T00:53:36;-2.69;90.66
72114;SHT31;59989;46.220;19.888;2023-02-16T00:56:56;-2.75;90.69
72114;SHT31;59989;46.220;19.888;2023-02-16T01:03:54;-2.95;90.50
72114;SHT31;59989;46.220;19.888;2023-02-16T01:07:15;-2.89;91.08
72114;SHT31;59989;46.220;19.888;2023-02-16T01:10:56;-2.88;91.13
72114;SHT31;59989;46.220;19.888;2023-02-16T01:14:26;-2.92;91.04
72114;SHT31;59989;46.220;19.888;2023-02-16T01:17:46;-2.97;91.05
72114;SHT31;59989;46.220;19.888;2023-02-16T01:21:06;-3.00;91.10
72114;SHT31;59989;46.220;19.888;2023-02-16T01:24:27;-3.04;91.12
72114;SHT31;59989;46.220;19.888;2023-02-16T01:27:47;-3.09;90.95
72114;SHT31;59989;46.220;19.888;2023-02-16T01:31:09;-3.13;91.01
72114;SHT31;59989;46.220;19.888;2023-02-16T01:34:29;-3.13;91.13
72114;SHT31;59989;46.220;19.888;2023-02-16T01:37:49;-3.16;91.18
72114;SHT31;59989;46.220;19.888;2023-02-16T01:44:59;-3.18;91.11
72114;SHT31;59989;46.220;19.888;2023-02-16T01:48:28;-3.03;91.31
72114;SHT31;59989;46.220;19.888;2023-02-16T01:55:23;-2.86;91.02
72114;SHT31;59989;46.220;19.888;2023-02-16T01:58:49;-2.89;90.82
72114;SHT31;59989;46.220;19.888;2023-02-16T02:02:22;-2.88;90.79
72114;SHT31;59989;46.220;19.888;2023-02-16T02:05:44;-2.89;91.03
72114;SHT31;59989;46.220;19.888;2023-02-16T02:12:39;-2.96;91.54
72114;SHT31;59989;46.220;19.888;2023-02-16T02:16:04;-3.00;91.84
72114;SHT31;59989;46.220;19.888;2023-02-16T02:19:25;-3.01;92.07
72114;SHT31;59989;46.220;19.888;2023-02-16T02:40:59;-3.62;91.98
72114;SHT31;59989;46.220;19.888;2023-02-16T02:44:24;-3.68;92.10
72114;SHT31;59989;46.220;19.888;2023-02-16T02:47:47;-3.78;92.30
72114;SHT31;59989;46.220;19.888;2023-02-16T02:54:47;-3.85;92.59
72114;SHT31;59989;46.220;19.888;2023-02-16T02:58:30;-3.85;92.54
72114;SHT31;59989;46.220;19.888;2023-02-16T03:02:11;-3.82;92.40
72114;SHT31;59989;46.220;19.888;2023-02-16T03:05:33;-3.95;92.08
72114;SHT31;59989;46.220;19.888;2023-02-16T03:09:09;-3.95;92.37
72114;SHT31;59989;46.220;19.888;2023-02-16T03:12:30;-3.74;92.62
72114;SHT31;59989;46.220;19.888;2023-02-16T03:16:12;-3.66;92.75
72114;SHT31;59989;46.220;19.888;2023-02-16T03:19:32;-3.75;92.53
72114;SHT31;59989;46.220;19.888;2023-02-16T03:23:11;-3.95;91.93
72114;SHT31;59989;46.220;19.888;2023-02-16T03:26:50;-3.99;92.16
72114;SHT31;59989;46.220;19.888;2023-02-16T03:30:30;-4.03;92.04
72114;SHT31;59989;46.220;19.888;2023-02-16T03:33:50;-4.03;91.86
72114;SHT31;59989;46.220;19.888;2023-02-16T03:37:14;-4.03;92.11
72114;SHT31;59989;46.220;19.888;2023-02-16T03:40:35;-4.13;91.96
72114;SHT31;59989;46.220;19.888;2023-02-16T03:43:58;-4.21;91.77
72114;SHT31;59989;46.220;19.888;2023-02-16T03:47:18;-4.27;91.70
72114;SHT31;59989;46.220;19.888;2023-02-16T03:50:38;-4.38;91.84
72114;SHT31;59989;46.220;19.888;2023-02-16T03:53:57;-4.45;91.79
72114;SHT31;59989;46.220;19.888;2023-02-16T03:57:17;-4.44;91.97
72114;SHT31;59989;46.220;19.888;2023-02-16T04:00:38;-4.28;92.11
72114;SHT31;59989;46.220;19.888;2023-02-16T04:03:58;-4.27;92.12
72114;SHT31;59989;46.220;19.888;2023-02-16T04:07:17;-4.21;92.17
72114;SHT31;59989;46.220;19.888;2023-02-16T04:10:38;-4.11;92.21
72114;SHT31;59989;46.220;19.888;2023-02-16T04:13:58;-3.90;92.16
72114;SHT31;59989;46.220;19.888;2023-02-16T04:17:18;-3.93;92.02
72114;SHT31;59989;46.220;19.888;2023-02-16T04:20:37;-3.99;91.81
72114;SHT31;59989;46.220;19.888;2023-02-16T04:23:57;-4.06;91.62
72114;SHT31;59989;46.220;19.888;2023-02-16T04:27:17;-4.05;91.66
72114;SHT31;59989;46.220;19.888;2023-02-16T04:30:37;-4.05;91.63
72114;SHT31;59989;46.220;19.888;2023-02-16T04:33:57;-4.05;91.62
72114;SHT31;59989;46.220;19.888;2023-02-16T04:37:17;-4.07;91.57
72114;SHT31;59989;46.220;19.888;2023-02-16T04:40:37;-4.16;91.43
72114;SHT31;59989;46.220;19.888;2023-02-16T04:43:57;-4.14;91.50
72114;SHT31;59989;46.220;19.888;2023-02-16T04:47:17;-4.21;91.35
72114;SHT31;59989;46.220;19.888;2023-02-16T04:50:37;-4.41;90.57
72114;SHT31;59989;46.220;19.888;2023-02-16T04:53:56;-4.54;90.78
72114;SHT31;59989;46.220;19.888;2023-02-16T04:57:16;-4.64;90.92
72114;SHT31;59989;46.220;19.888;2023-02-16T05:00:40;-4.72;90.89
72114;SHT31;59989;46.220;19.888;2023-02-16T05:04:00;-4.58;91.20
72114;SHT31;59989;46.220;19.888;2023-02-16T05:07:20;-4.43;91.64
72114;SHT31;59989;46.220;19.888;2023-02-16T05:10:41;-4.40;91.64
72114;SHT31;59989;46.220;19.888;2023-02-16T05:14:01;-4.58;91.15
72114;SHT31;59989;46.220;19.888;2023-02-16T05:17:40;-4.78;90.90
72114;SHT31;59989;46.220;19.888;2023-02-16T05:21:00;-4.91;90.98
72114;SHT31;59989;46.220;19.888;2023-02-16T05:24:39;-4.92;91.19
72114;SHT31;59989;46.220;19.888;2023-02-16T05:27:59;-4.72;91.60
72114;SHT31;59989;46.220;19.888;2023-02-16T05:31:19;-4.60;91.95
72114;SHT31;59989;46.220;19.888;2023-02-16T05:34:39;-4.53;91.77
72114;SHT31;59989;46.220;19.888;2023-02-16T05:37:59;-4.54;91.68
72114;SHT31;59989;46.220;19.888;2023-02-16T05:41:18;-4.57;91.52
72114;SHT31;59989;46.220;19.888;2023-02-16T05:44:44;-4.66;91.61
72114;SHT31;59989;46.220;19.888;2023-02-16T05:48:04;-4.69;91.80
72114;SHT31;59989;46.220;19.888;2023-02-16T05:51:24;-4.68;91.83
72114;SHT31;59989;46.220;19.888;2023-02-16T05:54:44;-4.71;92.02
72114;SHT31;59989;46.220;19.888;2023-02-16T05:58:04;-4.72;92.11
72114;SHT31;59989;46.220;19.888;2023-02-16T06:01:25;-4.66;92.38
72114;SHT31;59989;46.220;19.888;2023-02-16T06:04:46;-4.60;92.14
72114;SHT31;59989;46.220;19.888;2023-02-16T06:08:05;-4.60;91.86
72114;SHT31;59989;46.220;19.888;2023-02-16T06:11:26;-4.57;91.69
72114;SHT31;59989;46.220;19.888;2023-02-16T06:14:55;-4.48;91.79
72114;SHT31;59989;46.220;19.888;2023-02-16T06:18:15;-4.51;91.53
72114;SHT31;59989;46.220;19.888;2023-02-16T06:21:35;-4.57;91.36
72114;SHT31;59989;46.220;19.888;2023-02-16T06:24:56;-4.53;92.10
72114;SHT31;59989;46.220;19.888;2023-02-16T06:28:16;-4.47;92.09
72114;SHT31;59989;46.220;19.888;2023-02-16T06:31:36;-4.40;91.65
72114;SHT31;59989;46.220;19.888;2023-02-16T06:34:56;-4.33;91.56
72114;SHT31;59989;46.220;19.888;2023-02-16T06:38:16;-4.26;91.32
72114;SHT31;59989;46.220;19.888;2023-02-16T06:41:36;-4.16;91.51
72114;SHT31;59989;46.220;19.888;2023-02-16T06:44:58;-4.09;92.28
72114;SHT31;59989;46.220;19.888;2023-02-16T06:48:19;-4.07;92.81
72114;SHT31;59989;46.220;19.888;2023-02-16T06:51:39;-3.99;93.09
72114;SHT31;59989;46.220;19.888;2023-02-16T06:54:58;-3.87;93.20
72114;SHT31;59989;46.220;19.888;2023-02-16T06:58:18;-3.79;93.29
72114;SHT31;59989;46.220;19.888;2023-02-16T07:01:38;-3.66;93.20
72114;SHT31;59989;46.220;19.888;2023-02-16T07:04:58;-3.58;93.03
72114;SHT31;59989;46.220;19.888;2023-02-16T07:08:18;-3.54;92.95
72114;SHT31;59989;46.220;19.888;2023-02-16T07:11:39;-3.43;92.88
72114;SHT31;59989;46.220;19.888;2023-02-16T07:14:59;-3.40;92.80
72114;SHT31;59989;46.220;19.888;2023-02-16T07:18:19;-3.33;92.76
72114;SHT31;59989;46.220;19.888;2023-02-16T07:21:39;-3.10;92.71
72114;SHT31;59989;46.220;19.888;2023-02-16T07:24:42;-2.93;92.36
72114;SHT31;59989;46.220;19.888;2023-02-16T07:27:45;-2.73;92.37
72114;SHT31;59989;46.220;19.888;2023-02-16T07:30:48;-2.62;92.33
72114;SHT31;59989;46.220;19.888;2023-02-16T07:33:52;-2.47;92.31
72114;SHT31;59989;46.220;19.888;2023-02-16T07:36:55;-2.38;92.23
72114;SHT31;59989;46.220;19.888;2023-02-16T07:39:57;-2.26;92.00
72114;SHT31;59989;46.220;19.888;2023-02-16T07:43:02;-2.07;91.87
72114;SHT31;59989;46.220;19.888;2023-02-16T07:46:04;-1.89;91.76
72114;SHT31;59989;46.220;19.888;2023-02-16T07:49:07;-1.70;91.58
72114;SHT31;59989;46.220;19.888;2023-02-16T07:52:10;-1.47;91.09
72114;SHT31;59989;46.220;19.888;2023-02-16T07:55:12;-1.24;90.53
72114;SHT31;59989;46.220;19.888;2023-02-16T07:58:15;-0.87;90.39
72114;SHT31;59989;46.220;19.888;2023-02-16T08:01:29;-0.51;89.93
72114;SHT31;59989;46.220;19.888;2023-02-16T08:04:33;-0.15;89.31
72114;SHT31;59989;46.220;19.888;2023-02-16T08:07:35;0.24;88.88
72114;SHT31;59989;46.220;19.888;2023-02-16T08:10:38;0.48;88.68
72114;SHT31;59989;46.220;19.888;2023-02-16T08:13:41;0.78;88.16
72114;SHT31;59989;46.220;19.888;2023-02-16T08:16:43;1.17;87.64
72114;SHT31;59989;46.220;19.888;2023-02-16T08:19:46;1.44;87.32
72114;SHT31;59989;46.220;19.888;2023-02-16T08:22:52;1.89;86.24
72114;SHT31;59989;46.220;19.888;2023-02-16T08:25:55;2.19;85.52
72114;SHT31;59989;46.220;19.888;2023-02-16T08:29:00;2.44;85.53
72114;SHT31;59989;46.220;19.888;2023-02-16T08:32:03;2.80;84.55
72114;SHT31;59989;46.220;19.888;2023-02-16T08:35:09;3.12;84.56
72114;SHT31;59989;46.220;19.888;2023-02-16T08:38:12;3.39;83.70
72114;SHT31;59989;46.220;19.888;2023-02-16T08:41:15;3.70;82.96
72114;SHT31;59989;46.220;19.888;2023-02-16T08:44:20;3.90;82.13
72114;SHT31;59989;46.220;19.888;2023-02-16T08:47:22;4.19;82.42
72114;SHT31;59989;46.220;19.888;2023-02-16T08:50:25;4.57;81.98
72114;SHT31;59989;46.220;19.888;2023-02-16T08:53:28;4.86;81.09
72114;SHT31;59989;46.220;19.888;2023-02-16T08:56:34;5.18;80.05
72114;SHT31;59989;46.220;19.888;2023-02-16T08:59:37;5.25;80.24
72114;SHT31;59989;46.220;19.888;2023-02-16T09:02:39;5.42;80.17
72114;SHT31;59989;46.220;19.888;2023-02-16T09:05:42;5.76;79.24
72114;SHT31;59989;46.220;19.888;2023-02-16T09:08:44;5.97;78.94
72114;SHT31;59989;46.220;19.888;2023-02-16T09:11:48;6.37;77.86
72114;SHT31;59989;46.220;19.888;2023-02-16T09:14:52;6.61;76.73
72114;SHT31;59989;46.220;19.888;2023-02-16T09:17:55;6.79;76.49
72114;SHT31;59989;46.220;19.888;2023-02-16T09:21:03;6.92;76.33
72114;SHT31;59989;46.220;19.888;2023-02-16T09:24:07;7.51;75.39
72114;SHT31;59989;46.220;19.888;2023-02-16T09:27:10;7.64;74.70
72114;SHT31;59989;46.220;19.888;2023-02-16T09:30:13;8.22;72.26
72114;SHT31;59989;46.220;19.888;2023-02-16T09:33:16;8.25;72.13
72114;SHT31;59989;46.220;19.888;2023-02-16T09:36:19;8.47;71.28
72114;SHT31;59989;46.220;19.888;2023-02-16T09:39:21;8.92;69.91
72114;SHT31;59989;46.220;19.888;2023-02-16T09:46:15;9.29;66.49
72114;SHT31;59989;46.220;19.888;2023-02-16T09:52:37;9.05;66.99
72114;SHT31;59989;46.220;19.888;2023-02-16T09:55:59;9.92;65.79
72114;SHT31;59989;46.220;19.888;2023-02-16T09:59:35;10.18;64.45
72114;SHT31;59989;46.220;19.888;2023-02-16T10:09:16;10.32;62.09
72114;SHT31;59989;46.220;19.888;2023-02-16T10:12:30;10.73;61.27
72114;SHT31;59989;46.220;19.888;2023-02-16T10:15:35;9.81;63.75
72114;SHT31;59989;46.220;19.888;2023-02-16T10:18:42;10.79;61.27
72114;SHT31;59989;46.220;19.888;2023-02-16T10:21:49;10.91;60.28
72114;SHT31;59989;46.220;19.888;2023-02-16T10:25:00;10.87;60.56
72114;SHT31;59989;46.220;19.888;2023-02-16T10:28:15;11.04;60.47
72114;SHT31;59989;46.220;19.888;2023-02-16T10:38:07;11.54;58.61
72114;SHT31;59989;46.220;19.888;2023-02-16T10:41:22;11.63;57.20
72114;SHT31;59989;46.220;19.888;2023-02-16T10:44:36;12.03;56.99
72114;SHT31;59989;46.220;19.888;2023-02-16T10:47:44;12.49;56.01
72114;SHT31;59989;46.220;19.888;2023-02-16T10:50:54;12.49;56.19
72114;SHT31;59989;46.220;19.888;2023-02-16T10:54:02;12.85;54.04
72114;SHT31;59989;46.220;19.888;2023-02-16T10:57:32;12.55;54.02
72114;SHT31;59989;46.220;19.888;2023-02-16T11:01:09;12.88;53.56
72114;SHT31;59989;46.220;19.888;2023-02-16T11:04:36;13.48;51.45
72114;SHT31;59989;46.220;19.888;2023-02-16T11:07:51;13.98;49.95
72114;SHT31;59989;46.220;19.888;2023-02-16T11:10:54;14.43;48.98
72114;SHT31;59989;46.220;19.888;2023-02-16T11:13:59;13.85;50.06
72114;SHT31;59989;46.220;19.888;2023-02-16T11:17:10;14.53;49.26
72114;SHT31;59989;46.220;19.888;2023-02-16T11:23:57;13.53;49.42
72114;SHT31;59989;46.220;19.888;2023-02-16T11:27:13;13.30;50.68
72114;SHT31;59989;46.220;19.888;2023-02-16T11:30:18;14.61;47.21
72114;SHT31;59989;46.220;19.888;2023-02-16T11:33:26;14.22;47.97
72114;SHT31;59989;46.220;19.888;2023-02-16T11:36:44;15.96;45.00
72114;SHT31;59989;46.220;19.888;2023-02-16T11:40:00;17.39;41.99
72114;SHT31;59989;46.220;19.888;2023-02-16T11:43:04;17.38;41.97
72114;SHT31;59989;46.220;19.888;2023-02-16T11:46:13;14.92;45.74
72114;SHT31;59989;46.220;19.888;2023-02-16T11:49:37;15.90;44.85
72114;SHT31;59989;46.220;19.888;2023-02-16T11:52:40;15.15;45.39
72114;SHT31;59989;46.220;19.888;2023-02-16T11:55:48;15.25;46.04
72114;SHT31;59989;46.220;19.888;2023-02-16T11:59:18;15.18;44.03
72114;SHT31;59989;46.220;19.888;2023-02-16T12:05:55;15.86;43.68
72114;SHT31;59989;46.220;19.888;2023-02-16T12:12:44;15.96;45.47
72114;SHT31;59989;46.220;19.888;2023-02-16T12:16:05;16.52;43.20
72114;SHT31;59989;46.220;19.888;2023-02-16T12:22:39;15.91;45.53
72114;SHT31;59989;46.220;19.888;2023-02-16T12:29:28;15.76;45.80
72114;SHT31;59989;46.220;19.888;2023-02-16T12:35:55;16.97;42.54
72114;SHT31;59989;46.220;19.888;2023-02-16T12:39:15;16.35;44.25
72114;SHT31;59989;46.220;19.888;2023-02-16T12:42:51;18.47;40.49
72114;SHT31;59989;46.220;19.888;2023-02-16T12:46:02;17.37;41.58
72114;SHT31;59989;46.220;19.888;2023-02-16T12:58:27;18.74;37.40
72114;SHT31;59989;46.220;19.888;2023-02-16T13:01:33;18.41;37.59
72114;SHT31;59989;46.220;19.888;2023-02-16T13:04:45;17.82;38.63
72114;SHT31;59989;46.220;19.888;2023-02-16T13:07:55;18.45;38.04
72114;SHT31;59989;46.220;19.888;2023-02-16T13:14:17;17.72;38.96
72114;SHT31;59989;46.220;19.888;2023-02-16T13:17:32;17.41;40.55
72114;SHT31;59989;46.220;19.888;2023-02-16T13:20:39;18.74;37.72
72114;SHT31;59989;46.220;19.888;2023-02-16T13:24:10;18.26;38.54
72114;SHT31;59989;46.220;19.888;2023-02-16T13:27:48;19.30;36.53
72114;SHT31;59989;46.220;19.888;2023-02-16T13:41:54;18.99;36.11
72114;SHT31;59989;46.220;19.888;2023-02-16T13:45:08;19.34;36.53
72114;SHT31;59989;46.220;19.888;2023-02-16T13:48:20;19.20;36.06
72114;SHT31;59989;46.220;19.888;2023-02-16T13:51:24;18.30;38.16
72114;SHT31;59989;46.220;19.888;2023-02-16T13:54:34;18.91;37.49
72114;SHT31;59989;46.220;19.888;2023-02-16T14:00:52;19.47;36.27
72114;SHT31;59989;46.220;19.888;2023-02-16T14:03:56;20.28;34.65
72114;SHT31;59989;46.220;19.888;2023-02-16T14:10:12;18.53;37.00
72114;SHT31;59989;46.220;19.888;2023-02-16T14:13:16;17.57;38.76
72114;SHT31;59989;46.220;19.888;2023-02-16T14:19:25;16.17;42.22
72114;SHT31;59989;46.220;19.888;2023-02-16T14:25:46;14.73;45.55
72114;SHT31;59989;46.220;19.888;2023-02-16T14:29:15;14.20;46.59
72114;SHT31;59989;46.220;19.888;2023-02-16T14:32:29;13.58;48.55
72114;SHT31;59989;46.220;19.888;2023-02-16T14:35:35;13.51;48.51
72114;SHT31;59989;46.220;19.888;2023-02-16T14:41:45;13.07;49.97
72114;SHT31;59989;46.220;19.888;2023-02-16T14:45:21;12.96;49.94
72114;SHT31;59989;46.220;19.888;2023-02-16T14:51:58;12.46;52.15
72114;SHT31;59989;46.220;19.888;2023-02-16T14:58:37;12.10;53.20
72114;SHT31;59989;46.220;19.888;2023-02-16T15:01:44;12.00;54.10
72114;SHT31;59989;46.220;19.888;2023-02-16T15:04:47;11.77;55.63
72114;SHT31;59989;46.220;19.888;2023-02-16T15:07:52;11.65;55.89
72114;SHT31;59989;46.220;19.888;2023-02-16T15:10:55;11.31;56.93
72114;SHT31;59989;46.220;19.888;2023-02-16T15:14:13;11.19;57.22
72114;SHT31;59989;46.220;19.888;2023-02-16T15:17:39;11.07;57.47
72114;SHT31;59989;46.220;19.888;2023-02-16T15:20:45;10.96;58.14
72114;SHT31;59989;46.220;19.888;2023-02-16T15:23:53;10.81;58.85
72114;SHT31;59989;46.220;19.888;2023-02-16T15:26:56;10.52;59.42
72114;SHT31;59989;46.220;19.888;2023-02-16T15:30:32;10.19;60.46
72114;SHT31;59989;46.220;19.888;2023-02-16T15:33:38;9.98;60.98
72114;SHT31;59989;46.220;19.888;2023-02-16T15:36:43;9.87;61.30
72114;SHT31;59989;46.220;19.888;2023-02-16T15:39:47;9.78;61.42
72114;SHT31;59989;46.220;19.888;2023-02-16T15:43:17;9.54;62.40
72114;SHT31;59989;46.220;19.888;2023-02-16T15:49:29;9.23;63.22
72114;SHT31;59989;46.220;19.888;2023-02-16T15:52:35;8.96;64.33
72114;SHT31;59989;46.220;19.888;2023-02-16T15:55:43;8.79;65.13
72114;SHT31;59989;46.220;19.888;2023-02-16T15:58:48;8.65;65.54
72114;SHT31;59989;46.220;19.888;2023-02-16T16:02:18;8.46;65.91
72114;SHT31;59989;46.220;19.888;2023-02-16T16:05:27;8.32;66.65
72114;SHT31;59989;46.220;19.888;2023-02-16T16:08:30;8.13;67.64
72114;SHT31;59989;46.220;19.888;2023-02-16T16:11:35;7.88;68.64
72114;SHT31;59989;46.220;19.888;2023-02-16T16:15:02;7.68;69.13
72114;SHT31;59989;46.220;19.888;2023-02-16T16:18:05;7.52;69.95
72114;SHT31;59989;46.220;19.888;2023-02-16T16:21:28;7.48;70.52
72114;SHT31;59989;46.220;19.888;2023-02-16T16:24:37;7.32;70.94
72114;SHT31;59989;46.220;19.888;2023-02-16T16:27:46;7.20;71.44
72114;SHT31;59989;46.220;19.888;2023-02-16T16:31:08;7.01;71.80
72114;SHT31;59989;46.220;19.888;2023-02-16T16:34:33;6.79;72.69
72114;SHT31;59989;46.220;19.888;2023-02-16T16:37:35;6.62;73.44
72114;SHT31;59989;46.220;19.888;2023-02-16T16:40:38;6.52;74.02
72114;SHT31;59989;46.220;19.888;2023-02-16T16:43:52;6.37;74.42
72114;SHT31;59989;46.220;19.888;2023-02-16T16:46:55;6.37;74.53
72114;SHT31;59989;46.220;19.888;2023-02-16T16:50:44;6.20;74.78
72114;SHT31;59989;46.220;19.888;2023-02-16T16:56:33;5.87;75.70
72114;SHT31;59989;46.220;19.888;2023-02-16T16:59:37;5.74;75.71
72114;SHT31;59989;46.220;19.888;2023-02-16T17:02:40;5.65;76.52
72114;SHT31;59989;46.220;19.888;2023-02-16T17:05:43;5.55;76.91
72114;SHT31;59989;46.220;19.888;2023-02-16T17:08:46;5.45;77.31
72114;SHT31;59989;46.220;19.888;2023-02-16T17:11:49;5.44;77.36
72114;SHT31;59989;46.220;19.888;2023-02-16T17:14:52;5.45;77.32
72114;SHT31;59989;46.220;19.888;2023-02-16T17:17:57;5.38;77.07
72114;SHT31;59989;46.220;19.888;2023-02-16T17:21:00;5.31;77.16
72114;SHT31;59989;46.220;19.888;2023-02-16T17:24:03;5.20;77.32
72114;SHT31;59989;46.220;19.888;2023-02-16T17:27:06;5.03;77.93
72114;SHT31;59989;46.220;19.888;2023-02-16T17:30:10;4.95;78.12
72114;SHT31;59989;46.220;19.888;2023-02-16T17:33:13;4.84;78.68
72114;SHT31;59989;46.220;19.888;2023-02-16T17:36:17;4.77;78.78
72114;SHT31;59989;46.220;19.888;2023-02-16T17:39:21;4.63;79.26
72114;SHT31;59989;46.220;19.888;2023-02-16T17:42:23;4.52;79.75
72114;SHT31;59989;46.220;19.888;2023-02-16T17:45:28;4.50;80.18
72114;SHT31;59989;46.220;19.888;2023-02-16T17:48:31;4.46;80.18
72114;SHT31;59989;46.220;19.888;2023-02-16T17:51:34;4.38;80.30
72114;SHT31;59989;46.220;19.888;2023-02-16T17:54:38;4.36;80.10
72114;SHT31;59989;46.220;19.888;2023-02-16T17:57:40;4.31;80.25
72114;SHT31;59989;46.220;19.888;2023-02-16T18:00:45;4.22;80.23
72114;SHT31;59989;46.220;19.888;2023-02-16T18:03:47;4.15;80.39
72114;SHT31;59989;46.220;19.888;2023-02-16T18:06:50;4.05;80.54
72114;SHT31;59989;46.220;19.888;2023-02-16T18:09:53;4.05;80.82
72114;SHT31;59989;46.220;19.888;2023-02-16T18:12:56;3.94;80.92
72114;SHT31;59989;46.220;19.888;2023-02-16T18:16:00;3.88;80.91
72114;SHT31;59989;46.220;19.888;2023-02-16T18:19:08;3.84;80.99
72114;SHT31;59989;46.220;19.888;2023-02-16T18:22:12;3.77;81.12
72114;SHT31;59989;46.220;19.888;2023-02-16T18:25:15;3.73;81.26
72114;SHT31;59989;46.220;19.888;2023-02-16T18:28:24;3.59;81.23
72114;SHT31;59989;46.220;19.888;2023-02-16T18:31:27;3.56;81.41
72114;SHT31;59989;46.220;19.888;2023-02-16T18:34:30;3.49;81.39
72114;SHT31;59989;46.220;19.888;2023-02-16T18:37:34;3.33;81.53
72114;SHT31;59989;46.220;19.888;2023-02-16T18:40:39;3.19;81.92
72114;SHT31;59989;46.220;19.888;2023-02-16T18:43:42;3.13;82.43
72114;SHT31;59989;46.220;19.888;2023-02-16T18:46:44;3.12;82.86
72114;SHT31;59989;46.220;19.888;2023-02-16T18:49:50;3.08;82.92
72114;SHT31;59989;46.220;19.888;2023-02-16T18:52:54;3.01;82.95
72114;SHT31;59989;46.220;19.888;2023-02-16T18:55:57;2.95;83.21
72114;SHT31;59989;46.220;19.888;2023-02-16T18:59:01;2.85;83.40
72114;SHT31;59989;46.220;19.888;2023-02-16T19:02:04;2.80;83.38
72114;SHT31;59989;46.220;19.888;2023-02-16T19:05:09;2.73;83.67
72114;SHT31;59989;46.220;19.888;2023-02-16T19:08:12;2.68;83.64
72114;SHT31;59989;46.220;19.888;2023-02-16T19:11:19;2.65;83.58
72114;SHT31;59989;46.220;19.888;2023-02-16T19:14:22;2.64;83.51
72114;SHT31;59989;46.220;19.888;2023-02-16T19:17:25;2.51;83.91
72114;SHT31;59989;46.220;19.888;2023-02-16T19:20:29;2.40;84.17
72114;SHT31;59989;46.220;19.888;2023-02-16T19:23:32;2.41;84.44
72114;SHT31;59989;46.220;19.888;2023-02-16T19:26:36;2.33;84.30
72114;SHT31;59989;46.220;19.888;2023-02-16T19:29:39;2.28;84.25
72114;SHT31;59989;46.220;19.888;2023-02-16T19:32:43;2.23;84.24
72114;SHT31;59989;46.220;19.888;2023-02-16T19:35:46;2.15;84.58
72114;SHT31;59989;46.220;19.888;2023-02-16T19:38:49;2.12;84.73
72114;SHT31;59989;46.220;19.888;2023-02-16T19:41:52;2.06;84.98
72114;SHT31;59989;46.220;19.888;2023-02-16T19:44:55;2.12;85.29
72114;SHT31;59989;46.220;19.888;2023-02-16T19:47:57;2.09;85.11
72114;SHT31;59989;46.220;19.888;2023-02-16T19:51:05;2.03;84.91
72114;SHT31;59989;46.220;19.888;2023-02-16T19:54:08;1.95;85.02
72114;SHT31;59989;46.220;19.888;2023-02-16T19:57:11;1.88;85.18
72114;SHT31;59989;46.220;19.888;2023-02-16T20:00:14;1.84;85.19
72114;SHT31;59989;46.220;19.888;2023-02-16T20:03:17;1.79;85.51
72114;SHT31;59989;46.220;19.888;2023-02-16T20:06:41;1.71;85.70
72114;SHT31;59989;46.220;19.888;2023-02-16T20:09:44;1.67;86.18
72114;SHT31;59989;46.220;19.888;2023-02-16T20:12:46;1.58;86.44
72114;SHT31;59989;46.220;19.888;2023-02-16T20:15:49;1.48;86.63
72114;SHT31;59989;46.220;19.888;2023-02-16T20:18:53;1.46;86.70
72114;SHT31;59989;46.220;19.888;2023-02-16T20:21:55;1.43;86.68
72114;SHT31;59989;46.220;19.888;2023-02-16T20:24:58;1.39;86.45
72114;SHT31;59989;46.220;19.888;2023-02-16T20:28:01;1.32;86.49
72114;SHT31;59989;46.220;19.888;2023-02-16T20:31:10;1.30;86.48
72114;SHT31;59989;46.220;19.888;2023-02-16T20:34:14;1.30;86.64
72114;SHT31;59989;46.220;19.888;2023-02-16T20:37:17;1.29;86.78
72114;SHT31;59989;46.220;19.888;2023-02-16T20:40:20;1.23;86.97
72114;SHT31;59989;46.220;19.888;2023-02-16T20:43:24;1.17;86.90
72114;SHT31;59989;46.220;19.888;2023-02-16T20:46:26;1.15;86.91
72114;SHT31;59989;46.220;19.888;2023-02-16T20:49:29;1.12;86.91
72114;SHT31;59989;46.220;19.888;2023-02-16T20:52:32;1.05;87.28
72114;SHT31;59989;46.220;19.888;2023-02-16T20:55:36;1.00;87.24
72114;SHT31;59989;46.220;19.888;2023-02-16T20:58:38;0.99;87.26
72114;SHT31;59989;46.220;19.888;2023-02-16T21:01:44;0.93;87.28
72114;SHT31;59989;46.220;19.888;2023-02-16T21:04:47;0.86;87.33
72114;SHT31;59989;46.220;19.888;2023-02-16T21:07:51;0.79;87.82
72114;SHT31;59989;46.220;19.888;2023-02-16T21:10:53;0.86;88.07
72114;SHT31;59989;46.220;19.888;2023-02-16T21:13:56;0.89;87.98
72114;SHT31;59989;46.220;19.888;2023-02-16T21:16:59;0.89;87.75
72114;SHT31;59989;46.220;19.888;2023-02-16T21:20:04;0.89;87.53
72114;SHT31;59989;46.220;19.888;2023-02-16T21:23:12;0.81;87.67
72114;SHT31;59989;46.220;19.888;2023-02-16T21:26:16;0.74;87.84
72114;SHT31;59989;46.220;19.888;2023-02-16T21:29:19;0.66;87.80
72114;SHT31;59989;46.220;19.888;2023-02-16T21:32:21;0.55;87.79
72114;SHT31;59989;46.220;19.888;2023-02-16T21:35:24;0.47;88.04
72114;SHT31;59989;46.220;19.888;2023-02-16T21:38:26;0.36;88.04
72114;SHT31;59989;46.220;19.888;2023-02-16T21:41:29;0.26;88.29
72114;SHT31;59989;46.220;19.888;2023-02-16T21:44:32;0.16;88.45
72114;SHT31;59989;46.220;19.888;2023-02-16T21:47:35;0.07;88.88
72114;SHT31;59989;46.220;19.888;2023-02-16T21:51:00;0.05;89.05
72114;SHT31;59989;46.220;19.888;2023-02-16T21:54:07;0.00;89.00
72114;SHT31;59989;46.220;19.888;2023-02-16T21:57:10;-0.01;89.24
72114;SHT31;59989;46.220;19.888;2023-02-16T22:00:13;-0.01;89.26
72114;SHT31;59989;46.220;19.888;2023-02-16T22:03:16;0.03;89.38
72114;SHT31;59989;46.220;19.888;2023-02-16T22:06:19;-0.01;89.39
72114;SHT31;59989;46.220;19.888;2023-02-16T22:09:22;-0.03;89.39
72114;SHT31;59989;46.220;19.888;2023-02-16T22:12:24;-0.04;89.41
72114;SHT31;59989;46.220;19.888;2023-02-16T22:15:27;-0.01;89.21